Miami, FL

12:42 AM EDT on April 01, 2015 (GMT -0400)
Kendall-Tamiami Executive | Change Station
CLOSE
Current Station
Airport
Location: Kendall,
Elevation: 10 ft
Nearby Weather Stations

Elev 10 ft 25.64 °N, 80.43 °W | Updated 49 minutes ago

Mostly Cloudy
Mostly Cloudy
65 °F
Feels Like 65 °F
N
4
Wind Variable Wind from West

Today
High -- | Low -- °F
--% Chance of Precip.
Yesterday
High -- | Low -- °F
Precip. -- in
7:13 AM 7:38 PM
Waxing Gibbous, 90% visible
Pressure 30.14 in
Visibility 10.0 miles
Clouds Clear
Dew Point 61 °F
Humidity 87%
Rainfall 0.00 in
Snow Depth Not available.
UV 0 out of 12
Pollen 8.20 out of 12
Ozone Good
PM2.5 Good
Flu Activity Regional
METAR KTMB 010353Z AUTO 26003KT 10SM CLR 18/16 A3014 RMK AO2 SLP205 T01830161

More Conditions Fewer Conditions

Pressure 30.14 in
Visibility 10.0 miles
Clouds Clear
Dew Point 61 °F
Humidity 87%
Rainfall 0.00 in
Snow Depth Not available.
UV 0 out of 12
Pollen 8.20 out of 12
Ozone Good
PM2.5 Good
Flu Activity Regional
METAR KTMB 010353Z AUTO 26003KT 10SM CLR 18/16 A3014 RMK AO2 SLP205 T01830161

More Conditions Fewer Conditions

10-Day Weather Forecast

Almanac

Astronomy

Apr. 01, 2015 Rise Set
Actual Time 7:13 AM EDT 7:38 PM EDT
Civil Twilight 6:50 AM EDT 8:01 PM EDT
Nautical Twilight 6:23 AM EDT 8:28 PM EDT
Astronomical Twilight 5:55 AM EDT 8:55 PM EDT
Moon 5:29 PM EDT 5:27 AM EDT
Length of Visible Light 13h 11m
Length of Day
12h 25m
Tomorrow will be 1m 30s longer.
Waxing Gibbous, 90% of the Moon is Illuminated
Today
Waxing Gibbous
Apr 4
Full
Apr 11
Last Quarter
Apr 18
New
Apr 25
First Quarter

Today's Extremes

State Highs State Lows

Community

WunderPhotos

Upload Photos

1,809,919 photos uploaded!

WunderBlogs® & News

Nearby

Air Quality

  Air Quality AQ Index Pollutant
Yesterday Good
OZONE
Yesterday Good
PM2.5
Current Good
PM2.5
Current Good
OZONE
Tuesday Moderate
OZONE
Tuesday Moderate
PM2.5
Wednesday Unhealthy for Sensitive Groups
OZONE
Wednesday Moderate
PM2.5

Snow Depth

Station Depth Elevation
No new snow has been reported.

Earthquake Activity

City Distance Mag. Time & Date
No recent earthquake activity has been reported nearby.
Minimum magnitude displayed is 2.5.

Coastal Water Temperatures

Place Temperature
Virginia Key, FL 75.9 °F

Nearby Weather Stations